Airfield :
LOGIN :

Register | Disclaimer

   EN    FR    IT 

 










Legend :    VFR   Marginal VFR   IFR   Intensive IFR   Very Intensive IFR
Visi :
Ceiling :
>= 8 km
>= 3000ft
5 to 8 km
1000 to 3000 ft
1500m to 5 km
500 to 1000 ft
800 to 1500m
200 to 500 ft
< 800m
< 200 ft
Symbols :   Thunderstorms  Fog  Heavy snow  Heavy precipitations  Wind > 20 kt
SIGMETs :     Misc.  Thunderstorms  Icing  Turbulence  Mountain Waves  Volcanic Ashes






- Airport Elevation : 1066 ft


EGOM - RAF Spadeadam

CURRENT METAR :
  • 300020Z AUTO 27007KT 8000 -RA SCT003/// OVC008/// 10/09 Q1006

EXPIRED METARs :
  • 292350Z AUTO 27007KT 9999 // OVC003/// 10/09 Q1006
  • 292320Z AUTO 26005KT 7000 -RA FEW011/// OVC059/// 10/09 Q1006
  • 292250Z AUTO 28008KT 9999 -RA OVC059/// 10/09 Q1006
  • 292220Z AUTO 26006KT 9999 FEW030/// BKN068/// 10/09 Q1006
  • 292150Z AUTO 28009KT 9999 BKN019/// BKN030/// 10/09 Q1006
  • 292120Z AUTO 27008KT 9999 BKN020/// BKN069/// 11/09 Q1006
  • 292050Z AUTO 27011KT 9999 FEW041/// OVC063/// 11/09 Q1006
  • 292020Z AUTO 27011KT 9999 FEW026/// BKN064/// 12/10 Q1006
  • 291950Z AUTO 26008KT 9999 FEW016/// BKN059/// 12/10 Q1005

Expired Forecast.



MET'MAP, your aeronautical weather chart ! - Copyright ORBIFLY December 2007 - Disclaimer

ORBIFLY MET'MAP TEAM :

Programming & Development : Alexandra Zaïnal
Original concept : Baudouin d'Aumeries
Technical & hardware support : Manuel Goepfert
Assistance : Marc-Olivier Méhu




SOURCES & CREDITS :

   NOAA